Time;durP1;ratioP1;P1;durP2;ratioP2;P2;SDS_P1;SDS_P2;PMS_P1;PMS_P2;Temp;Humidity;BMP_temperature;BMP_pressure;BME280_temperature;BME280_humidity;BME280_pressure;Samples;Min_cycle;Max_cycle;Signal;HPM_P1;HPM_P2
2021/08/12 00:01:16;;;;;;;20.55;17.45;;;17.10;84.90;;;;;;5009490;28;20034;-74
2021/08/12 00:03:41;;;;;;;20.83;16.65;;;17.10;85.00;;;;;;5006004;28;20041;-74
2021/08/12 00:06:07;;;;;;;19.58;16.85;;;17.10;85.00;;;;;;5008584;28;20033;-75
2021/08/12 00:08:33;;;;;;;21.48;18.23;;;17.10;85.00;;;;;;5006956;28;20056;-76
2021/08/12 00:10:59;;;;;;;21.52;16.77;;;17.10;85.00;;;;;;5022768;28;20041;-79
2021/08/12 00:13:25;;;;;;;21.13;17.25;;;17.10;85.00;;;;;;5023708;28;20045;-75
2021/08/12 00:15:51;;;;;;;21.98;19.35;;;17.10;85.10;;;;;;5028942;28;20040;-75
2021/08/12 00:18:17;;;;;;;20.75;17.95;;;17.00;85.10;;;;;;5025091;28;20034;-76
2021/08/12 00:20:43;;;;;;;22.08;18.38;;;17.00;85.20;;;;;;5020159;28;20038;-75
2021/08/12 00:23:08;;;;;;;23.30;18.92;;;17.10;85.30;;;;;;5027096;28;20512;-76
2021/08/12 00:25:34;;;;;;;23.25;18.88;;;17.00;85.30;;;;;;5032663;28;20037;-75
2021/08/12 00:28:00;;;;;;;19.90;17.45;;;17.00;85.30;;;;;;5039254;28;20041;-76
2021/08/12 00:30:26;;;;;;;21.40;18.15;;;17.00;85.40;;;;;;5018985;28;20033;-80
2021/08/12 00:32:52;;;;;;;22.50;18.08;;;17.00;85.40;;;;;;5033935;28;20037;-75
2021/08/12 00:35:17;;;;;;;24.88;21.25;;;17.00;85.30;;;;;;5031493;28;20033;-75
2021/08/12 00:37:43;;;;;;;24.63;19.83;;;17.00;85.30;;;;;;5028184;28;20026;-76
2021/08/12 00:40:09;;;;;;;22.17;19.60;;;16.90;85.30;;;;;;5019960;28;20037;-75
2021/08/12 00:42:35;;;;;;;22.83;18.55;;;16.90;85.50;;;;;;5026905;28;20034;-75
2021/08/12 00:45:01;;;;;;;21.25;18.23;;;16.80;85.70;;;;;;5028861;28;20575;-74
2021/08/12 00:47:28;;;;;;;25.20;20.10;;;16.80;85.70;;;;;;5020775;28;20061;-75
2021/08/12 00:49:53;;;;;;;25.15;20.80;;;16.70;85.80;;;;;;5015756;28;20492;-74
2021/08/12 00:52:21;;;;;;;26.85;22.27;;;16.70;85.80;;;;;;5025247;28;20049;-79
2021/08/12 00:54:46;;;;;;;23.50;20.52;;;16.70;85.80;;;;;;5028333;28;20029;-75
2021/08/12 00:57:13;;;;;;;26.05;21.90;;;16.70;85.90;;;;;;5022264;28;20048;-78
2021/08/12 00:59:40;;;;;;;25.27;20.65;;;16.60;85.90;;;;;;5035754;28;20045;-75
2021/08/12 01:02:10;;;;;;;26.38;20.13;;;16.60;86.00;;;;;;5020529;28;20054;-75
2021/08/12 01:04:47;;;;;;;22.98;19.38;;;16.60;86.00;;;;;;5024820;28;20080;-74
2021/08/12 01:07:25;;;;;;;23.48;20.98;;;16.50;86.00;;;;;;5019477;28;20173;-75
2021/08/12 01:09:58;;;;;;;22.65;19.55;;;16.50;86.10;;;;;;5026114;28;20026;-74
2021/08/12 01:12:48;;;;;;;23.83;18.92;;;16.50;86.00;;;;;;5027328;28;20052;-74
2021/08/12 01:15:41;;;;;;;22.20;19.27;;;16.40;85.70;;;;;;5027350;28;20040;-74
2021/08/12 01:18:19;;;;;;;22.88;19.23;;;16.40;85.60;;;;;;5029105;28;20034;-74
2021/08/12 01:21:03;;;;;;;26.38;19.70;;;16.30;85.70;;;;;;5014823;28;20080;-73
2021/08/12 01:23:30;;;;;;;25.85;20.70;;;16.30;86.00;;;;;;4999829;28;20042;-74
2021/08/12 01:25:58;;;;;;;27.65;21.42;;;16.20;86.10;;;;;;5015896;28;20041;-74
2021/08/12 01:28:28;;;;;;;23.25;19.90;;;16.20;86.30;;;;;;5013741;28;20168;-74
2021/08/12 01:31:11;;;;;;;24.92;20.13;;;16.20;86.40;;;;;;5008891;28;20033;-73
2021/08/12 01:34:02;;;;;;;22.45;18.73;;;16.20;86.40;;;;;;5010408;28;20041;-74
2021/08/12 01:36:30;;;;;;;24.38;19.65;;;16.20;86.40;;;;;;5011048;28;20034;-77
2021/08/12 01:38:57;;;;;;;23.50;19.52;;;16.20;86.40;;;;;;5001550;28;20084;-74
2021/08/12 01:41:25;;;;;;;23.85;19.35;;;16.20;86.40;;;;;;4993782;28;20034;-76
2021/08/12 01:43:51;;;;;;;25.23;20.20;;;16.20;86.30;;;;;;4996220;28;20030;-74
2021/08/12 01:46:18;;;;;;;24.88;19.98;;;16.10;86.40;;;;;;5004277;28;20129;-76
2021/08/12 01:48:44;;;;;;;24.77;19.60;;;16.10;86.50;;;;;;5008488;28;20030;-74
2021/08/12 01:51:12;;;;;;;24.25;19.40;;;16.10;86.40;;;;;;4998961;28;20030;-74
2021/08/12 01:53:38;;;;;;;26.02;20.08;;;16.10;86.30;;;;;;5004320;28;20477;-74
2021/08/12 01:56:05;;;;;;;23.38;19.83;;;16.10;86.50;;;;;;5021650;28;20054;-79
2021/08/12 01:58:32;;;;;;;25.13;20.48;;;16.00;86.50;;;;;;4998103;28;20037;-74
2021/08/12 02:00:58;;;;;;;25.08;20.38;;;16.00;86.60;;;;;;5008452;28;20035;-74
2021/08/12 02:03:25;;;;;;;28.13;21.90;;;16.00;86.60;;;;;;5023516;28;20088;-74
2021/08/12 02:05:53;;;;;;;27.20;19.83;;;15.90;86.60;;;;;;5002004;28;20030;-74
2021/08/12 02:08:22;;;;;;;24.48;20.55;;;15.90;86.80;;;;;;5005368;28;20521;-74
2021/08/12 02:10:49;;;;;;;26.38;21.38;;;15.90;86.90;;;;;;5003443;28;20026;-75
2021/08/12 02:13:14;;;;;;;25.38;19.42;;;15.80;87.00;;;;;;4995484;28;20397;-74
2021/08/12 02:15:40;;;;;;;24.08;19.55;;;15.90;87.10;;;;;;5008224;28;20038;-75
2021/08/12 02:18:06;;;;;;;23.40;19.45;;;15.90;87.00;;;;;;4996032;28;20062;-75
2021/08/12 02:20:33;;;;;;;22.65;19.20;;;15.80;86.80;;;;;;5001397;28;20030;-75
2021/08/12 02:23:08;;;;;;;23.55;19.67;;;15.80;86.80;;;;;;5002436;28;20100;-75
2021/08/12 02:25:50;;;;;;;24.83;19.67;;;15.80;86.70;;;;;;5023270;28;20030;-75
2021/08/12 02:28:17;;;;;;;23.40;19.65;;;15.80;86.70;;;;;;5022871;28;20052;-74
2021/08/12 02:30:44;;;;;;;21.02;17.92;;;15.70;86.60;;;;;;5015956;28;20065;-76
2021/08/12 02:33:14;;;;;;;24.70;20.15;;;15.70;86.60;;;;;;5004593;28;20517;-75
2021/08/12 02:35:40;;;;;;;25.83;20.33;;;15.70;86.60;;;;;;5013581;28;20428;-74
2021/08/12 02:38:09;;;;;;;22.33;19.92;;;15.70;86.90;;;;;;4995685;28;20482;-74
2021/08/12 02:40:37;;;;;;;23.88;20.83;;;15.70;86.90;;;;;;4998044;28;20470;-75
2021/08/12 02:43:03;;;;;;;23.80;19.42;;;15.70;86.90;;;;;;5012349;28;20033;-74
2021/08/12 02:45:31;;;;;;;27.02;21.63;;;15.70;86.90;;;;;;5002627;28;20030;-75
2021/08/12 02:47:59;;;;;;;22.65;18.98;;;15.70;87.00;;;;;;5007451;28;20506;-79
2021/08/12 02:50:25;;;;;;;26.23;20.30;;;15.60;87.00;;;;;;4999445;28;20060;-76
2021/08/12 02:52:51;;;;;;;30.13;22.98;;;15.70;87.10;;;;;;5012661;28;20037;-76
2021/08/12 02:55:18;;;;;;;28.40;23.60;;;15.70;87.20;;;;;;4999018;28;20121;-75
2021/08/12 02:57:44;;;;;;;25.10;21.35;;;15.70;87.30;;;;;;5020023;28;20021;-75
2021/08/12 03:00:11;;;;;;;30.40;22.98;;;15.70;87.40;;;;;;5013958;28;20479;-75
2021/08/12 03:02:39;;;;;;;29.67;23.73;;;15.80;87.30;;;;;;5029427;28;20045;-75
2021/08/12 03:05:05;;;;;;;27.85;21.05;;;15.80;87.50;;;;;;5030996;28;20120;-75
2021/08/12 03:07:34;;;;;;;26.30;22.33;;;15.80;87.40;;;;;;5027569;28;20388;-75
2021/08/12 03:10:00;;;;;;;29.70;24.52;;;15.80;87.40;;;;;;5022612;28;20072;-75
2021/08/12 03:12:26;;;;;;;27.55;22.35;;;15.80;87.60;;;;;;5020692;28;20477;-75
2021/08/12 03:14:52;;;;;;;29.23;22.70;;;15.80;87.60;;;;;;5026633;28;20028;-76
2021/08/12 03:17:19;;;;;;;30.13;24.33;;;15.80;87.70;;;;;;5029140;28;20038;-75
2021/08/12 03:19:45;;;;;;;27.27;22.80;;;15.70;87.80;;;;;;5022162;28;20083;-75
2021/08/12 03:22:13;;;;;;;29.48;24.35;;;15.70;87.80;;;;;;5029778;28;20068;-75
2021/08/12 03:24:47;;;;;;;28.30;23.42;;;15.80;87.90;;;;;;5029759;28;20026;-75
2021/08/12 03:27:15;;;;;;;28.13;23.33;;;15.70;88.00;;;;;;5027388;28;20095;-75
2021/08/12 03:29:43;;;;;;;27.75;23.40;;;15.70;88.10;;;;;;5031598;28;20029;-75
2021/08/12 03:32:09;;;;;;;27.77;22.00;;;15.70;88.20;;;;;;5029301;28;20041;-74
2021/08/12 03:34:35;;;;;;;30.67;25.40;;;15.70;88.30;;;;;;5028410;28;20031;-78
2021/08/12 03:37:01;;;;;;;27.17;23.27;;;15.60;88.30;;;;;;5034497;28;20025;-75
2021/08/12 03:39:27;;;;;;;29.85;24.30;;;15.60;88.50;;;;;;5031952;28;20083;-74
2021/08/12 03:41:52;;;;;;;30.27;23.95;;;15.60;88.60;;;;;;5027974;28;20033;-76
2021/08/12 03:44:18;;;;;;;31.00;25.58;;;15.60;88.70;;;;;;5032539;28;20073;-74
2021/08/12 03:46:44;;;;;;;29.48;25.85;;;15.60;88.80;;;;;;5028526;28;20555;-75
2021/08/12 03:49:10;;;;;;;30.08;26.13;;;15.70;88.80;;;;;;5022788;28;20026;-74
2021/08/12 03:51:36;;;;;;;29.20;23.45;;;15.70;88.90;;;;;;5031591;28;20036;-75
2021/08/12 03:54:02;;;;;;;29.70;23.48;;;15.70;88.90;;;;;;5031092;28;20049;-75
2021/08/12 03:56:28;;;;;;;25.63;22.20;;;15.70;88.80;;;;;;5036285;28;20172;-79
2021/08/12 03:58:53;;;;;;;32.35;25.35;;;15.70;88.80;;;;;;5031533;28;20121;-76
2021/08/12 04:01:19;;;;;;;28.88;23.80;;;15.80;88.80;;;;;;5022623;28;20034;-75
2021/08/12 04:03:45;;;;;;;27.00;23.60;;;15.80;88.70;;;;;;5031898;28;20038;-75
2021/08/12 04:06:11;;;;;;;27.55;23.58;;;15.80;88.60;;;;;;5014203;28;20025;-76
2021/08/12 04:08:36;;;;;;;27.95;24.20;;;15.80;88.50;;;;;;5000985;28;20045;-76
2021/08/12 04:11:03;;;;;;;27.33;22.23;;;15.70;88.40;;;;;;4995465;28;20034;-75
2021/08/12 04:13:28;;;;;;;27.67;22.38;;;15.70;88.40;;;;;;4994776;28;20410;-75
2021/08/12 04:15:55;;;;;;;29.05;24.38;;;15.70;88.30;;;;;;5012118;28;20041;-74
2021/08/12 04:18:21;;;;;;;28.77;23.40;;;15.70;88.40;;;;;;5022974;28;20046;-75
2021/08/12 04:20:46;;;;;;;28.65;22.15;;;15.60;88.30;;;;;;5000691;28;20393;-75
2021/08/12 04:23:12;;;;;;;27.48;23.50;;;15.60;88.20;;;;;;5002095;28;20057;-75
2021/08/12 04:25:38;;;;;;;27.00;21.73;;;15.60;88.10;;;;;;5004320;28;20034;-75
2021/08/12 04:28:04;;;;;;;25.92;22.58;;;15.60;88.20;;;;;;5006396;28;20114;-75
2021/08/12 04:30:29;;;;;;;26.67;20.63;;;15.50;88.10;;;;;;5013168;28;20026;-75
2021/08/12 04:32:55;;;;;;;26.27;22.20;;;15.60;88.00;;;;;;5030713;28;20037;-75
2021/08/12 04:35:21;;;;;;;28.73;22.92;;;15.50;87.90;;;;;;5026073;28;20040;-74
2021/08/12 04:37:47;;;;;;;28.00;22.08;;;15.50;88.00;;;;;;5007928;28;20038;-79
2021/08/12 04:40:19;;;;;;;27.95;23.55;;;15.50;88.10;;;;;;5005194;28;20035;-75
2021/08/12 04:42:47;;;;;;;28.17;23.60;;;15.60;88.20;;;;;;5005962;28;20046;-76
2021/08/12 04:45:13;;;;;;;28.30;23.85;;;15.60;88.10;;;;;;4997516;28;20065;-75
2021/08/12 04:47:39;;;;;;;36.17;23.48;;;15.70;88.20;;;;;;5007666;28;20034;-77
2021/08/12 04:50:06;;;;;;;29.08;25.02;;;15.70;88.10;;;;;;5011038;28;20443;-75
2021/08/12 04:52:32;;;;;;;30.48;24.50;;;15.80;88.20;;;;;;5010124;28;20109;-74
2021/08/12 04:54:58;;;;;;;31.15;25.48;;;15.80;88.20;;;;;;5009918;28;20475;-75
2021/08/12 04:57:23;;;;;;;29.40;24.40;;;15.80;88.20;;;;;;5011066;28;20394;-76
2021/08/12 04:59:49;;;;;;;29.23;23.83;;;15.80;88.30;;;;;;5018653;28;20037;-74
2021/08/12 05:02:15;;;;;;;29.50;22.55;;;15.90;88.30;;;;;;5020326;28;20037;-75
2021/08/12 05:04:40;;;;;;;27.38;22.40;;;15.90;88.30;;;;;;5018427;28;20054;-75
2021/08/12 05:07:06;;;;;;;25.15;21.05;;;15.90;88.20;;;;;;4998851;28;20030;-75
2021/08/12 05:09:32;;;;;;;25.90;21.27;;;16.00;88.10;;;;;;4995676;28;20461;-75
2021/08/12 05:11:59;;;;;;;27.92;22.88;;;16.00;88.10;;;;;;5009311;28;20030;-76
2021/08/12 05:14:25;;;;;;;28.05;22.52;;;16.10;87.90;;;;;;5023802;28;20427;-74
2021/08/12 05:16:50;;;;;;;27.30;23.17;;;16.10;87.70;;;;;;5032093;28;20071;-75
2021/08/12 05:19:16;;;;;;;29.75;23.48;;;16.20;87.60;;;;;;5028973;28;20383;-76
2021/08/12 05:21:42;;;;;;;30.73;25.40;;;16.40;87.20;;;;;;5021714;28;20473;-74
2021/08/12 05:24:07;;;;;;;28.83;23.45;;;16.50;86.60;;;;;;5002956;28;20038;-75
2021/08/12 05:26:33;;;;;;;27.88;22.98;;;16.60;86.50;;;;;;5001398;28;20058;-74
2021/08/12 05:28:59;;;;;;;30.55;22.25;;;16.70;86.00;;;;;;5000078;28;20041;-76
2021/08/12 05:31:24;;;;;;;28.10;23.08;;;16.70;85.90;;;;;;5005386;28;20121;-76
2021/08/12 05:33:50;;;;;;;25.73;20.95;;;16.80;85.60;;;;;;5025878;28;20037;-75
2021/08/12 05:36:16;;;;;;;31.13;24.73;;;16.90;85.60;;;;;;5006653;28;20362;-75
2021/08/12 05:38:41;;;;;;;25.52;21.65;;;17.00;85.10;;;;;;5008157;28;20076;-76
2021/08/12 05:41:07;;;;;;;30.50;24.50;;;17.00;85.20;;;;;;5003658;28;20057;-75
2021/08/12 05:43:33;;;;;;;26.67;22.02;;;17.10;85.00;;;;;;5005883;28;20046;-75
2021/08/12 05:45:58;;;;;;;27.00;22.65;;;17.10;84.90;;;;;;5006517;28;20385;-75
2021/08/12 05:48:24;;;;;;;28.48;23.33;;;17.10;84.70;;;;;;5004053;28;20041;-75
2021/08/12 05:50:50;;;;;;;27.23;21.63;;;17.10;84.40;;;;;;5008053;28;20039;-75
2021/08/12 05:53:17;;;;;;;28.17;23.17;;;17.20;84.70;;;;;;5002151;28;20465;-74
2021/08/12 05:55:43;;;;;;;23.17;20.13;;;17.20;84.10;;;;;;5008620;28;20757;-76
2021/08/12 05:58:09;;;;;;;25.77;22.38;;;17.30;84.30;;;;;;5018359;28;20064;-75
2021/08/12 06:00:35;;;;;;;26.50;20.95;;;17.40;83.70;;;;;;5010361;28;20030;-77
2021/08/12 06:03:08;;;;;;;26.67;22.52;;;17.50;83.40;;;;;;4996889;28;20573;-75
2021/08/12 06:05:35;;;;;;;26.98;22.92;;;17.60;83.00;;;;;;4997365;28;20154;-75
2021/08/12 06:08:06;;;;;;;29.20;23.50;;;17.60;82.40;;;;;;4995370;28;20412;-76
2021/08/12 06:10:33;;;;;;;28.48;22.88;;;17.60;81.60;;;;;;5002364;28;20027;-75
2021/08/12 06:12:59;;;;;;;26.27;23.48;;;17.70;80.90;;;;;;5014874;28;20025;-77
2021/08/12 06:15:26;;;;;;;31.10;23.58;;;17.70;80.40;;;;;;5021920;28;20486;-75
2021/08/12 06:17:52;;;;;;;24.00;20.33;;;17.80;80.00;;;;;;5001753;28;20034;-76
2021/08/12 06:20:19;;;;;;;25.33;20.52;;;17.90;79.50;;;;;;4999468;28;20451;-75
2021/08/12 06:22:46;;;;;;;24.13;19.08;;;18.00;79.60;;;;;;5007962;28;20030;-75
2021/08/12 06:25:13;;;;;;;27.33;18.05;;;18.10;78.90;;;;;;5005580;28;20038;-77
2021/08/12 06:27:39;;;;;;;19.45;16.27;;;18.20;78.10;;;;;;5008873;28;20041;-76
2021/08/12 06:30:07;;;;;;;22.73;16.38;;;18.30;77.70;;;;;;5000842;28;20037;-79
2021/08/12 06:32:33;;;;;;;24.33;15.60;;;18.30;77.40;;;;;;5007203;28;20044;-76
2021/08/12 06:34:59;;;;;;;25.85;16.02;;;18.60;76.30;;;;;;5006479;28;20034;-77
2021/08/12 06:37:25;;;;;;;22.65;15.32;;;18.60;75.20;;;;;;5033921;28;20113;-76
2021/08/12 06:39:51;;;;;;;23.30;14.77;;;18.80;75.20;;;;;;5027913;28;20120;-76
2021/08/12 06:42:18;;;;;;;23.50;13.30;;;18.90;74.70;;;;;;5022956;28;20052;-76
2021/08/12 06:44:43;;;;;;;22.17;14.45;;;19.00;74.10;;;;;;5026863;28;20041;-77
2021/08/12 06:47:09;;;;;;;19.70;14.07;;;19.00;72.90;;;;;;5029914;28;20042;-75
2021/08/12 06:49:35;;;;;;;21.60;14.18;;;18.80;73.40;;;;;;5028040;28;20022;-77
2021/08/12 06:52:01;;;;;;;19.77;14.48;;;18.80;72.80;;;;;;5034458;28;20029;-76
2021/08/12 06:54:27;;;;;;;19.75;13.57;;;18.80;73.10;;;;;;5030028;28;20037;-76
2021/08/12 06:56:52;;;;;;;21.52;13.27;;;18.70;74.00;;;;;;5025416;28;20514;-76
2021/08/12 06:59:18;;;;;;;19.23;14.05;;;18.80;74.40;;;;;;5021630;28;20116;-75
2021/08/12 07:01:44;;;;;;;14.73;11.90;;;18.80;73.20;;;;;;5033721;28;20431;-80
2021/08/12 07:04:09;;;;;;;15.20;12.63;;;18.90;74.00;;;;;;5032726;28;20063;-76
2021/08/12 07:06:38;;;;;;;18.05;12.38;;;19.00;73.80;;;;;;5038090;28;20029;-77
2021/08/12 07:09:04;;;;;;;14.07;11.73;;;19.20;73.10;;;;;;5033706;28;20335;-76
2021/08/12 07:11:30;;;;;;;16.10;12.55;;;19.40;72.90;;;;;;5018966;28;20080;-74
2021/08/12 07:13:56;;;;;;;19.30;12.55;;;19.70;71.70;;;;;;5021420;28;20029;-75
2021/08/12 07:16:21;;;;;;;18.92;12.48;;;19.90;70.90;;;;;;5021457;28;20044;-72
2021/08/12 07:18:47;;;;;;;13.93;11.38;;;20.10;70.20;;;;;;5023148;28;20120;-72
2021/08/12 07:21:17;;;;;;;15.60;11.57;;;20.30;69.40;;;;;;5024656;28;20440;-71
2021/08/12 07:23:43;;;;;;;13.75;12.07;;;20.30;68.50;;;;;;5028874;28;20469;-72
2021/08/12 07:26:13;;;;;;;14.02;11.18;;;20.40;66.30;;;;;;5020978;28;20393;-71
2021/08/12 07:28:45;;;;;;;15.32;10.50;;;20.50;67.90;;;;;;5021135;28;20085;-75
2021/08/12 07:31:13;;;;;;;15.70;10.48;;;20.50;67.90;;;;;;5033103;28;20805;-72
2021/08/12 07:33:39;;;;;;;12.45;9.30;;;20.80;66.90;;;;;;5022535;28;20120;-72
2021/08/12 07:36:06;;;;;;;13.95;9.23;;;20.90;67.20;;;;;;5022304;28;20045;-73
2021/08/12 07:38:33;;;;;;;14.18;8.75;;;21.00;65.80;;;;;;5016631;28;20037;-72
2021/08/12 07:41:00;;;;;;;11.77;8.95;;;21.20;65.40;;;;;;5021934;28;20042;-72
2021/08/12 07:43:27;;;;;;;10.75;8.25;;;21.20;63.60;;;;;;5023144;28;20034;-72
2021/08/12 07:45:53;;;;;;;11.75;8.13;;;21.50;65.40;;;;;;5025000;28;20045;-72
2021/08/12 07:48:19;;;;;;;12.98;9.02;;;21.70;64.70;;;;;;5037413;28;20029;-73
2021/08/12 07:50:44;;;;;;;11.15;8.77;;;21.70;63.70;;;;;;5021242;28;20034;-77
2021/08/12 07:53:10;;;;;;;15.07;11.18;;;21.80;63.90;;;;;;5024838;28;20373;-71
2021/08/12 07:55:37;;;;;;;17.15;11.88;;;22.00;62.60;;;;;;5025011;28;20088;-73
2021/08/12 07:58:03;;;;;;;16.67;13.18;;;22.10;62.20;;;;;;5019526;28;20473;-72
2021/08/12 08:00:29;;;;;;;20.02;14.68;;;22.20;62.70;;;;;;5026179;28;20054;-72
2021/08/12 08:02:55;;;;;;;24.35;16.08;;;22.40;61.10;;;;;;5022787;28;20037;-72
2021/08/12 08:05:23;;;;;;;21.70;14.98;;;22.40;62.00;;;;;;5019513;28;20040;-71
2021/08/12 08:07:50;;;;;;;16.75;13.65;;;22.50;61.10;;;;;;5020348;28;20496;-71
2021/08/12 08:10:18;;;;;;;14.40;12.43;;;22.70;61.10;;;;;;5023909;28;20065;-71
2021/08/12 08:12:44;;;;;;;16.85;9.25;;;22.80;60.60;;;;;;5025777;28;20034;-73
2021/08/12 08:15:12;;;;;;;13.38;8.40;;;22.80;60.10;;;;;;5029279;28;20108;-70
2021/08/12 08:17:38;;;;;;;11.18;7.43;;;22.90;60.20;;;;;;5032203;28;20029;-71
2021/08/12 08:20:05;;;;;;;13.02;8.43;;;23.00;59.50;;;;;;5024843;28;20515;-71
2021/08/12 08:22:31;;;;;;;11.95;9.32;;;23.10;58.90;;;;;;5026627;28;20075;-71
2021/08/12 08:24:57;;;;;;;13.23;8.30;;;23.20;60.20;;;;;;5031511;28;20029;-70
2021/08/12 08:27:22;;;;;;;12.52;9.32;;;23.40;58.70;;;;;;5023649;28;20125;-73
2021/08/12 08:29:48;;;;;;;12.90;9.05;;;23.60;59.00;;;;;;5018016;28;20650;-71
2021/08/12 08:32:15;;;;;;;13.75;10.00;;;23.70;58.30;;;;;;5031831;28;20044;-72
2021/08/12 08:34:42;;;;;;;15.73;10.75;;;23.90;58.80;;;;;;5016394;28;20088;-72
2021/08/12 08:37:07;;;;;;;11.95;9.45;;;24.20;58.00;;;;;;5023303;28;20029;-81
2021/08/12 08:39:33;;;;;;;14.02;10.70;;;24.20;58.20;;;;;;5024336;28;20457;-72
2021/08/12 08:42:00;;;;;;;13.60;10.48;;;24.40;57.20;;;;;;5022301;28;20071;-73
2021/08/12 08:44:28;;;;;;;17.30;8.65;;;24.30;57.40;;;;;;5022883;28;20057;-73
2021/08/12 08:46:55;;;;;;;10.73;6.75;;;24.30;55.60;;;;;;5028087;28;20055;-72
2021/08/12 08:49:22;;;;;;;8.85;5.65;;;24.50;55.30;;;;;;5030830;28;20037;-72
2021/08/12 08:51:52;;;;;;;8.73;5.50;;;24.50;54.80;;;;;;5020470;28;20411;-73
2021/08/12 08:54:17;;;;;;;9.02;6.40;;;24.50;55.90;;;;;;5029519;28;20159;-73
2021/08/12 08:56:45;;;;;;;8.80;5.28;;;24.60;55.40;;;;;;5015670;28;20465;-73
2021/08/12 08:59:11;;;;;;;11.95;5.38;;;24.70;55.10;;;;;;5032714;28;20068;-71
2021/08/12 09:01:37;;;;;;;9.18;5.10;;;24.80;55.00;;;;;;5025633;28;20065;-72
2021/08/12 09:04:03;;;;;;;10.77;5.72;;;24.80;55.40;;;;;;5023499;28;20057;-71
2021/08/12 09:06:29;;;;;;;8.40;5.97;;;24.70;55.10;;;;;;5024682;28;20420;-70
2021/08/12 09:08:55;;;;;;;10.07;6.88;;;24.80;54.50;;;;;;5018237;28;20033;-73
2021/08/12 09:11:22;;;;;;;8.77;5.80;;;24.70;54.90;;;;;;5020966;28;20103;-73
2021/08/12 09:13:48;;;;;;;9.88;6.38;;;24.80;54.70;;;;;;5032030;28;20468;-73
2021/08/12 09:16:34;;;;;;;10.30;5.70;;;24.90;55.40;;;;;;5002973;28;20092;-71
2021/08/12 09:19:20;;;;;;;12.18;5.80;;;25.10;54.90;;;;;;5004323;28;20148;-76
2021/08/12 09:21:56;;;;;;;8.65;5.22;;;25.30;54.60;;;;;;5019483;28;20045;-72
2021/08/12 09:24:22;;;;;;;10.40;5.53;;;25.60;53.70;;;;;;5008776;28;20164;-72
2021/08/12 09:26:48;;;;;;;9.15;6.15;;;25.70;53.10;;;;;;5007784;28;20120;-72
2021/08/12 09:29:29;;;;;;;9.45;5.57;;;25.70;52.70;;;;;;5028884;28;20071;-76
2021/08/12 09:32:04;;;;;;;8.85;5.47;;;25.70;53.00;;;;;;5039765;28;20108;-75
2021/08/12 09:34:48;;;;;;;9.82;5.72;;;25.80;52.80;;;;;;5015978;28;20377;-72
2021/08/12 09:37:14;;;;;;;8.90;5.82;;;26.10;53.10;;;;;;5015429;28;20030;-73
2021/08/12 09:39:41;;;;;;;10.63;6.93;;;26.30;53.60;;;;;;5012295;28;20026;-72
2021/08/12 09:42:09;;;;;;;12.88;6.47;;;26.40;51.90;;;;;;5026696;28;20029;-74
2021/08/12 09:44:52;;;;;;;10.88;6.80;;;26.20;51.60;;;;;;5018359;28;20529;-72
2021/08/12 09:47:24;;;;;;;9.02;5.50;;;26.10;52.00;;;;;;4996747;28;20033;-72
2021/08/12 09:49:50;;;;;;;8.70;5.00;;;26.40;51.00;;;;;;4995539;28;20373;-76
2021/08/12 09:52:33;;;;;;;9.48;6.00;;;26.60;49.60;;;;;;4993886;28;20046;-72
2021/08/12 09:55:06;;;;;;;11.52;5.75;;;26.60;51.40;;;;;;5000979;28;20025;-71
2021/08/12 09:57:42;;;;;;;8.07;4.85;;;26.70;50.80;;;;;;5023098;28;20037;-71
2021/08/12 10:00:10;;;;;;;10.77;6.35;;;27.00;50.20;;;;;;5016641;28;20052;-77
2021/08/12 10:02:36;;;;;;;9.25;5.07;;;27.30;49.10;;;;;;5020026;28;20045;-72
2021/08/12 10:05:09;;;;;;;9.25;5.80;;;27.60;47.50;;;;;;5020666;28;20030;-74
2021/08/12 10:07:44;;;;;;;9.18;5.18;;;27.70;46.90;;;;;;5009431;28;20532;-78
2021/08/12 10:10:19;;;;;;;12.27;5.97;;;27.50;49.00;;;;;;4989942;28;20427;-72
2021/08/12 10:12:50;;;;;;;9.82;5.38;;;27.70;48.30;;;;;;5003830;28;20052;-71
2021/08/12 10:15:30;;;;;;;10.52;6.05;;;27.90;46.40;;;;;;4997398;28;20050;-71
2021/08/12 10:17:58;;;;;;;14.38;5.50;;;27.60;48.70;;;;;;5007348;28;20026;-71
2021/08/12 10:20:29;;;;;;;10.95;6.30;;;27.50;50.00;;;;;;5005356;28;20034;-71
2021/08/12 10:22:55;;;;;;;9.45;6.28;;;27.50;49.40;;;;;;4999104;28;20037;-75
2021/08/12 10:25:22;;;;;;;10.85;6.05;;;27.50;50.50;;;;;;5007877;28;20334;-72
2021/08/12 10:27:51;;;;;;;9.60;5.80;;;27.80;48.60;;;;;;5002446;28;20137;-73
2021/08/12 10:30:19;;;;;;;8.52;5.13;;;27.60;48.40;;;;;;4997111;28;20042;-73
2021/08/12 10:32:51;;;;;;;9.55;5.20;;;27.60;48.30;;;;;;5000434;28;20081;-75
2021/08/12 10:35:17;;;;;;;8.68;5.22;;;27.80;48.00;;;;;;5002417;28;20446;-72
2021/08/12 10:37:43;;;;;;;11.13;4.90;;;27.70;48.50;;;;;;5012505;28;20510;-75
2021/08/12 10:40:15;;;;;;;9.38;4.93;;;27.40;49.50;;;;;;5003921;28;20126;-71
2021/08/12 10:42:46;;;;;;;9.20;5.10;;;27.30;49.20;;;;;;5012972;28;20129;-71
2021/08/12 10:45:13;;;;;;;9.32;5.15;;;27.00;51.70;;;;;;4997529;28;20392;-72
2021/08/12 10:47:41;;;;;;;8.02;4.95;;;27.00;50.10;;;;;;5000090;28;20030;-72
2021/08/12 10:50:26;;;;;;;8.50;4.50;;;27.00;49.70;;;;;;5000175;28;20444;-73
2021/08/12 10:53:06;;;;;;;9.57;5.03;;;27.00;49.80;;;;;;5007627;28;20072;-75
2021/08/12 10:55:54;;;;;;;9.60;4.85;;;27.20;50.30;;;;;;5021084;28;20053;-72
2021/08/12 10:58:26;;;;;;;7.65;4.68;;;27.30;50.50;;;;;;4997725;28;20482;-72
2021/08/12 11:00:59;;;;;;;8.63;4.75;;;27.70;48.20;;;;;;5002930;28;20029;-75
2021/08/12 11:03:34;;;;;;;10.10;4.57;;;27.90;49.20;;;;;;5010273;28;20034;-72
2021/08/12 11:06:07;;;;;;;9.63;4.68;;;28.30;47.30;;;;;;5009397;28;20429;-73
2021/08/12 11:11:45;;;;;;;8.80;4.45;;;28.10;47.20;;;;;;5007281;28;20057;-72
2021/08/12 11:14:12;;;;;;;;;;;27.70;48.70;;;;;;4996869;28;20096;-72
2021/08/12 11:16:40;;;;;;;9.13;4.78;;;27.60;48.20;;;;;;4996701;28;19921;-73
2021/08/12 11:19:28;;;;;;;8.23;4.50;;;27.50;48.30;;;;;;4998931;28;20043;-75
2021/08/12 11:21:55;;;;;;;10.07;5.32;;;27.30;49.30;;;;;;5007545;28;20041;-84
2021/08/12 11:24:24;;;;;;;7.25;4.90;;;27.10;50.90;;;;;;5001284;28;20497;-74
2021/08/12 11:26:50;;;;;;;8.75;5.10;;;27.10;50.40;;;;;;5000561;28;20161;-73
2021/08/12 11:29:27;;;;;;;9.82;5.72;;;27.10;51.90;;;;;;5008571;28;20046;-73
2021/08/12 11:31:58;;;;;;;9.63;5.50;;;27.00;50.70;;;;;;5023433;28;20038;-73
2021/08/12 11:34:29;;;;;;;11.02;5.80;;;26.90;50.80;;;;;;5022625;28;20505;-74
2021/08/12 11:37:05;;;;;;;11.45;6.22;;;26.80;51.70;;;;;;5025219;28;20030;-84
2021/08/12 11:39:31;;;;;;;12.15;6.07;;;26.50;52.10;;;;;;5017313;28;20040;-74
2021/08/12 11:41:57;;;;;;;12.02;5.80;;;26.60;52.50;;;;;;5010439;28;20030;-81
2021/08/12 11:44:22;;;;;;;8.82;6.03;;;26.70;51.60;;;;;;5008056;28;20544;-74
2021/08/12 11:46:48;;;;;;;11.05;7.45;;;26.60;52.60;;;;;;5007277;28;20030;-79
2021/08/12 11:49:16;;;;;;;11.80;6.32;;;26.30;52.70;;;;;;5005394;28;20034;-73
2021/08/12 11:51:42;;;;;;;8.73;6.03;;;26.30;52.70;;;;;;5006000;28;20034;-72
2021/08/12 11:54:22;;;;;;;9.30;6.07;;;26.60;51.20;;;;;;5009675;28;20051;-73
2021/08/12 11:56:51;;;;;;;10.27;6.32;;;26.50;50.40;;;;;;5016744;28;20026;-72
2021/08/12 11:59:24;;;;;;;10.07;6.13;;;26.90;51.40;;;;;;5020253;28;20045;-73
2021/08/12 12:01:50;;;;;;;11.10;6.32;;;27.00;52.20;;;;;;5012228;28;20363;-73
2021/08/12 12:04:16;;;;;;;12.48;7.28;;;27.00;51.40;;;;;;4991845;28;20046;-73
2021/08/12 12:06:47;;;;;;;10.25;6.30;;;26.90;51.70;;;;;;5006976;28;20018;-72
2021/08/12 12:09:31;;;;;;;11.77;6.60;;;27.20;51.80;;;;;;5010620;28;20563;-78
2021/08/12 12:12:03;;;;;;;12.45;6.10;;;27.30;50.50;;;;;;5009826;28;20042;-73
2021/08/12 12:14:34;;;;;;;11.40;7.15;;;27.40;51.80;;;;;;5026642;28;20030;-72
2021/08/12 12:17:13;;;;;;;10.30;6.57;;;27.10;51.80;;;;;;5021443;28;20038;-75
2021/08/12 12:20:04;;;;;;;12.75;7.18;;;27.10;52.60;;;;;;5023055;28;20083;-72
2021/08/12 12:22:32;;;;;;;8.95;6.55;;;27.50;50.50;;;;;;5027778;28;20471;-72
2021/08/12 12:25:00;;;;;;;10.73;6.40;;;27.80;51.60;;;;;;5024675;28;20075;-80
2021/08/12 12:27:27;;;;;;;12.00;7.47;;;28.40;50.30;;;;;;5027731;28;20056;-73
2021/08/12 12:29:53;;;;;;;11.40;6.90;;;28.40;48.60;;;;;;5021879;28;20034;-75
2021/08/12 12:32:19;;;;;;;10.80;6.95;;;28.60;48.80;;;;;;5030709;28;20095;-80
2021/08/12 12:34:53;;;;;;;9.90;7.18;;;28.60;48.90;;;;;;5026193;28;20527;-71
2021/08/12 12:37:20;;;;;;;;;;;28.40;48.00;;;;;;5023999;28;20063;-79
2021/08/12 12:39:46;;;;;;;10.02;6.70;;;28.10;49.30;;;;;;5034792;28;19966;-72
2021/08/12 12:42:12;;;;;;;11.50;7.63;;;28.00;51.00;;;;;;5026962;28;20109;-74